Time;durP1;ratioP1;P1;durP2;ratioP2;P2;SDS_P1;SDS_P2;PMS_P1;PMS_P2;Temp;Humidity;BMP_temperature;BMP_pressure;BME280_temperature;BME280_humidity;BME280_pressure;Samples;Min_cycle;Max_cycle;Signal;HPM_P1;HPM_P2
2023/11/26 00:00:12;;;;;;;12.50;2.00;;;;;;;0.05;100.00;99164.95;105735;1293;22729;-78
2023/11/26 00:03:03;;;;;;;9.50;2.20;;;;;;;0.03;100.00;99167.35;105888;1292;25341;-79
2023/11/26 00:05:31;;;;;;;14.10;2.60;;;;;;;0.03;100.00;99170.42;105788;1292;22663;-80
2023/11/26 00:08:20;;;;;;;14.30;3.20;;;;;;;0.01;100.00;99170.86;105716;1292;22564;-80
2023/11/26 00:11:10;;;;;;;9.70;2.10;;;;;;;-0.00;100.00;99178.65;105758;1292;22550;-80
2023/11/26 00:13:38;;;;;;;9.50;2.10;;;;;;;-0.01;100.00;99180.47;105739;1292;25399;-79
2023/11/26 00:16:07;;;;;;;9.80;2.20;;;;;;;-0.03;100.00;99184.28;105774;1292;22546;-80
2023/11/26 00:18:37;;;;;;;11.10;2.50;;;;;;;-0.04;100.00;99190.41;105783;1292;22700;-80
2023/11/26 00:21:05;;;;;;;12.20;2.70;;;;;;;-0.04;100.00;99189.04;105724;1292;23924;-79
2023/11/26 00:23:34;;;;;;;13.10;3.60;;;;;;;-0.07;100.00;99188.55;105650;1289;22665;-80
2023/11/26 00:26:24;;;;;;;12.90;2.50;;;;;;;-0.07;100.00;99194.11;105678;1292;22679;-79
2023/11/26 00:28:52;;;;;;;13.30;2.70;;;;;;;-0.08;100.00;99196.56;105753;1292;24237;-79
2023/11/26 00:31:40;;;;;;;8.60;2.50;;;;;;;-0.09;100.00;99197.39;105749;1292;24221;-79
2023/11/26 00:34:08;;;;;;;9.90;2.80;;;;;;;-0.10;100.00;99202.81;105701;1292;26573;-79
2023/11/26 00:36:56;;;;;;;12.00;3.20;;;;;;;-0.11;100.00;99207.95;105764;1292;22833;-78
2023/11/26 00:39:45;;;;;;;11.40;3.20;;;;;;;-0.13;100.00;99214.58;105667;1292;24348;-79
2023/11/26 00:42:14;;;;;;;12.20;3.20;;;;;;;-0.13;100.00;99218.49;105765;1292;23946;-79
2023/11/26 00:45:03;;;;;;;13.00;3.90;;;;;;;-0.12;100.00;99220.90;105625;1293;22545;-80
2023/11/26 00:47:31;;;;;;;14.10;3.60;;;;;;;-0.12;100.00;99222.93;105543;1293;25377;-79
2023/11/26 00:50:02;;;;;;;12.30;3.50;;;;;;;-0.11;100.00;99228.95;105552;1294;24114;-79
2023/11/26 00:52:51;;;;;;;13.90;3.90;;;;;;;-0.10;100.00;99227.13;105714;1292;22567;-79
2023/11/26 00:55:39;;;;;;;12.40;3.10;;;;;;;-0.10;100.00;99230.66;105687;1292;22601;-78
2023/11/26 00:58:27;;;;;;;13.20;4.70;;;;;;;-0.10;100.00;99233.31;105547;1293;24206;-79
2023/11/26 01:00:55;;;;;;;13.60;4.00;;;;;;;-0.10;100.00;99236.04;105538;1293;25370;-79
2023/11/26 01:03:23;;;;;;;16.20;3.80;;;;;;;-0.09;100.00;99240.34;105616;1293;24011;-80
2023/11/26 01:05:51;;;;;;;12.70;3.80;;;;;;;-0.09;100.00;99239.95;105698;1294;22611;-79
2023/11/26 01:08:39;;;;;;;15.60;3.80;;;;;;;-0.10;100.00;99240.05;105672;1294;22776;-79
2023/11/26 01:11:12;;;;;;;18.70;5.60;;;;;;;-0.11;100.00;99241.50;105630;1294;22575;-79
2023/11/26 01:14:00;;;;;;;15.10;4.80;;;;;;;-0.12;100.00;99242.55;105509;1294;22547;-80
2023/11/26 01:16:29;;;;;;;14.60;5.50;;;;;;;-0.13;100.00;99248.76;105507;1292;22594;-80
2023/11/26 01:18:57;;;;;;;18.80;6.10;;;;;;;-0.14;100.00;99250.27;105721;1293;22601;-80
2023/11/26 01:21:45;;;;;;;14.60;5.40;;;;;;;-0.14;100.00;99259.74;105681;1294;24338;-79
2023/11/26 01:24:33;;;;;;;18.40;6.00;;;;;;;-0.14;100.00;99256.86;105723;1293;22557;-80
2023/11/26 01:27:21;;;;;;;18.70;6.60;;;;;;;-0.14;100.00;99258.97;105709;1292;22574;-80
2023/11/26 01:29:49;;;;;;;17.80;5.80;;;;;;;-0.14;100.00;99261.48;105767;1292;25513;-80
2023/11/26 01:32:17;;;;;;;20.20;6.30;;;;;;;-0.14;100.00;99267.27;105725;1292;23165;-80
2023/11/26 01:35:26;;;;;;;16.80;5.20;;;;;;;-0.15;100.00;99268.79;105766;1292;25694;-79
2023/11/26 01:37:54;;;;;;;18.70;6.90;;;;;;;-0.16;100.00;99274.79;105714;1292;22554;-79
2023/11/26 01:40:23;;;;;;;16.80;5.90;;;;;;;-0.17;100.00;99275.11;105759;1289;22548;-80
2023/11/26 01:42:51;;;;;;;19.30;7.00;;;;;;;-0.19;100.00;99274.83;105761;1292;24388;-80
2023/11/26 01:45:39;;;;;;;15.60;4.90;;;;;;;-0.19;100.00;99280.73;105688;1292;22808;-80
2023/11/26 01:48:07;;;;;;;18.30;6.50;;;;;;;-0.20;100.00;99280.75;105765;1288;24244;-80
2023/11/26 01:51:19;;;;;;;17.30;5.40;;;;;;;-0.22;100.00;99282.98;105762;1286;22562;-80
2023/11/26 01:53:49;;;;;;;20.70;7.20;;;;;;;-0.23;100.00;99284.11;105741;1292;23934;-79
2023/11/26 01:56:19;;;;;;;17.40;6.60;;;;;;;-0.24;100.00;99283.83;105789;1292;25293;-79
2023/11/26 01:58:47;;;;;;;17.70;6.60;;;;;;;-0.22;100.00;99292.09;105781;1292;24215;-80
2023/11/26 02:01:21;;;;;;;14.30;5.50;;;;;;;-0.21;100.00;99292.67;105710;1292;22559;-79
2023/11/26 02:03:49;;;;;;;11.10;3.00;;;;;;;-0.20;100.00;99290.23;105636;1292;26769;-79
2023/11/26 02:06:17;;;;;;;14.80;3.20;;;;;;;-0.20;100.00;99295.01;105616;1292;27954;-80
2023/11/26 02:08:47;;;;;;;12.80;3.60;;;;;;;-0.20;100.00;99303.09;105772;1292;22561;-79
2023/11/26 02:11:15;;;;;;;9.70;2.30;;;;;;;-0.23;100.00;99306.75;105707;1292;23656;-79
2023/11/26 02:13:46;;;;;;;13.40;3.40;;;;;;;-0.26;100.00;99306.46;105722;1292;24177;-79
2023/11/26 02:16:14;;;;;;;11.20;2.60;;;;;;;-0.30;100.00;99308.89;105758;1292;22553;-80
2023/11/26 02:19:05;;;;;;;10.90;3.00;;;;;;;-0.35;100.00;99310.50;105777;1292;22659;-79
2023/11/26 02:21:53;;;;;;;11.30;2.30;;;;;;;-0.40;100.00;99311.48;105708;1292;24221;-79
2023/11/26 02:24:29;;;;;;;11.90;2.70;;;;;;;-0.42;100.00;99314.91;105748;1292;25038;-79
2023/11/26 02:26:57;;;;;;;9.80;2.60;;;;;;;-0.43;100.00;99312.81;105718;1279;23868;-79
2023/11/26 02:29:46;;;;;;;12.70;3.40;;;;;;;-0.44;100.00;99313.55;105731;1292;24479;-77
2023/11/26 02:32:34;;;;;;;15.40;4.90;;;;;;;-0.44;100.00;99314.27;105577;1292;25381;-77
2023/11/26 02:35:02;;;;;;;12.40;4.10;;;;;;;-0.45;100.00;99311.60;105686;1292;24221;-77
2023/11/26 02:37:52;;;;;;;15.00;4.30;;;;;;;-0.46;100.00;99309.36;105642;1292;22582;-77
2023/11/26 02:40:40;;;;;;;15.50;3.90;;;;;;;-0.45;100.00;99312.85;105615;1292;23932;-77
2023/11/26 02:43:28;;;;;;;15.30;5.40;;;;;;;-0.43;100.00;99319.24;105599;1292;22678;-77
2023/11/26 02:46:17;;;;;;;13.80;3.90;;;;;;;-0.43;100.00;99326.74;105737;1292;22549;-80
2023/11/26 02:48:45;;;;;;;17.70;5.90;;;;;;;-0.43;100.00;99332.40;105742;1292;25386;-77
2023/11/26 02:51:33;;;;;;;19.30;6.80;;;;;;;-0.42;100.00;99334.64;105715;1285;24336;-77
2023/11/26 02:54:23;;;;;;;16.00;4.40;;;;;;;-0.41;100.00;99332.03;105729;1292;24348;-77
2023/11/26 02:57:11;;;;;;;15.60;5.80;;;;;;;-0.41;100.00;99333.83;105672;1292;22771;-77
2023/11/26 03:00:15;;;;;;;17.50;5.30;;;;;;;-0.41;100.00;99342.14;105790;1292;25353;-76
2023/11/26 03:03:04;;;;;;;13.40;4.00;;;;;;;-0.42;100.00;99344.20;105593;1292;22804;-78
2023/11/26 03:05:37;;;;;;;14.00;4.70;;;;;;;-0.43;100.00;99347.50;105666;1292;25478;-78
2023/11/26 03:08:20;;;;;;;16.10;5.80;;;;;;;-0.43;100.00;99349.77;105663;1292;25503;-77
2023/11/26 03:13:38;;;;;;;20.70;7.80;;;;;;;-0.44;100.00;99350.13;105652;1294;23956;-77
2023/11/26 03:16:26;;;;;;;20.00;7.50;;;;;;;-0.43;100.00;99357.23;105583;1293;23177;-78
2023/11/26 03:18:55;;;;;;;22.30;7.60;;;;;;;-0.43;100.00;99357.06;105607;1293;22604;-78
2023/11/26 03:21:44;;;;;;;17.60;6.30;;;;;;;-0.42;100.00;99351.48;105788;1294;22691;-79
2023/11/26 03:24:14;;;;;;;16.10;5.50;;;;;;;-0.41;100.00;99354.66;105920;1294;25498;-79
2023/11/26 03:26:42;;;;;;;16.70;4.60;;;;;;;-0.40;100.00;99359.44;105770;1293;24235;-78
2023/11/26 03:29:10;;;;;;;13.30;4.10;;;;;;;-0.37;100.00;99359.21;105507;1294;22627;-78
2023/11/26 03:31:58;;;;;;;11.70;3.50;;;;;;;-0.34;100.00;99363.84;105603;1294;22639;-77
2023/11/26 03:34:28;;;;;;;12.60;4.00;;;;;;;-0.33;100.00;99366.65;105676;1293;22605;-78
2023/11/26 03:37:17;;;;;;;12.50;3.30;;;;;;;-0.31;100.00;99371.46;105677;1294;22658;-78
2023/11/26 03:40:08;;;;;;;10.20;3.00;;;;;;;-0.32;100.00;99368.19;105521;1293;25357;-78
2023/11/26 03:42:56;;;;;;;10.30;2.70;;;;;;;-0.36;100.00;99370.63;105528;1293;22664;-78
2023/11/26 03:45:24;;;;;;;15.20;4.20;;;;;;;-0.38;100.00;99379.51;105542;1294;25344;-78
2023/11/26 03:47:53;;;;;;;16.10;3.70;;;;;;;-0.38;100.00;99381.63;105729;1294;22560;-78
2023/11/26 03:50:21;;;;;;;10.90;3.60;;;;;;;-0.38;100.00;99388.84;105703;1293;24775;-78
2023/11/26 03:53:29;;;;;;;13.60;3.30;;;;;;;-0.40;100.00;99390.84;105634;1294;22997;-78
2023/11/26 03:56:01;;;;;;;12.30;3.40;;;;;;;-0.41;100.00;99393.38;105560;1294;23991;-78
2023/11/26 03:58:30;;;;;;;11.80;2.60;;;;;;;-0.42;100.00;99397.48;105431;1293;22611;-78
2023/11/26 04:00:59;;;;;;;11.30;2.70;;;;;;;-0.43;100.00;99401.11;105728;1294;22640;-78
2023/11/26 04:03:28;;;;;;;13.80;4.20;;;;;;;-0.42;100.00;99402.11;105701;1294;25434;-78
2023/11/26 04:05:57;;;;;;;12.90;3.30;;;;;;;-0.41;100.00;99406.21;105728;1293;22549;-78
2023/11/26 04:08:45;;;;;;;10.80;3.70;;;;;;;-0.39;100.00;99412.91;105694;1293;23911;-78
2023/11/26 04:11:13;;;;;;;13.10;3.00;;;;;;;-0.37;100.00;99416.95;105712;1294;24240;-78
2023/11/26 04:14:10;;;;;;;11.30;3.40;;;;;;;-0.38;100.00;99416.36;105585;1294;22690;-78
2023/11/26 04:17:19;;;;;;;9.60;2.40;;;;;;;-0.37;100.00;99417.41;105734;1294;24281;-78
2023/11/26 04:20:09;;;;;;;11.30;3.80;;;;;;;-0.35;100.00;99418.87;105716;1294;24222;-78
2023/11/26 04:22:38;;;;;;;8.80;2.60;;;;;;;-0.35;100.00;99421.13;105675;1294;24084;-78
2023/11/26 04:25:26;;;;;;;11.80;3.20;;;;;;;-0.34;100.00;99426.13;105740;1294;22668;-78
2023/11/26 04:27:55;;;;;;;11.90;3.60;;;;;;;-0.35;100.00;99427.95;105702;1293;23052;-78
2023/11/26 04:30:43;;;;;;;13.90;3.50;;;;;;;-0.36;100.00;99433.69;105724;1293;25344;-78
2023/11/26 04:33:12;;;;;;;9.00;3.10;;;;;;;-0.36;100.00;99438.39;105723;1293;24205;-79
2023/11/26 04:36:01;;;;;;;14.10;4.50;;;;;;;-0.35;100.00;99442.06;105583;1295;22615;-78
2023/11/26 04:38:29;;;;;;;10.40;2.90;;;;;;;-0.34;100.00;99448.46;105678;1294;24009;-78
2023/11/26 04:40:57;;;;;;;17.70;4.40;;;;;;;-0.36;100.00;99447.80;105712;1289;23927;-78
2023/11/26 04:43:45;;;;;;;13.40;4.00;;;;;;;-0.37;100.00;99450.55;105735;1293;24354;-78
2023/11/26 04:46:15;;;;;;;16.70;4.10;;;;;;;-0.38;100.00;99452.86;105753;1291;25527;-78
2023/11/26 04:48:44;;;;;;;8.40;2.90;;;;;;;-0.41;100.00;99456.99;105709;1293;25501;-78
2023/11/26 04:51:35;;;;;;;13.00;3.50;;;;;;;-0.45;100.00;99460.52;105714;1294;24285;-78
2023/11/26 04:54:04;;;;;;;11.70;2.80;;;;;;;-0.47;100.00;99465.96;105712;1294;22537;-78
2023/11/26 04:56:36;;;;;;;12.90;4.30;;;;;;;-0.50;100.00;99471.98;105732;1294;24274;-78
2023/11/26 04:59:05;;;;;;;12.10;3.20;;;;;;;-0.51;100.00;99479.15;105710;1294;22558;-78
2023/11/26 05:01:35;;;;;;;10.60;3.60;;;;;;;-0.52;100.00;99479.25;105742;1294;22614;-79
2023/11/26 05:04:23;;;;;;;11.20;2.90;;;;;;;-0.53;100.00;99485.83;105686;1293;25357;-79
2023/11/26 05:06:52;;;;;;;8.90;2.30;;;;;;;-0.53;100.00;99496.17;105724;1293;22672;-78
2023/11/26 05:10:00;;;;;;;8.10;2.00;;;;;;;-0.53;100.00;99497.51;105709;1294;22566;-78
2023/11/26 05:12:28;;;;;;;9.80;1.80;;;;;;;-0.55;100.00;99502.25;105754;1293;22687;-79
2023/11/26 05:14:56;;;;;;;10.80;2.20;;;;;;;-0.57;100.00;99504.80;105700;1294;22560;-78
2023/11/26 05:17:45;;;;;;;8.10;1.80;;;;;;;-0.61;100.00;99508.55;105702;1294;25252;-78
2023/11/26 05:20:13;;;;;;;7.60;1.90;;;;;;;-0.64;100.00;99509.41;105714;1293;22666;-79
2023/11/26 05:23:18;;;;;;;8.10;2.10;;;;;;;-0.69;100.00;99512.48;105708;1294;22563;-79
2023/11/26 05:25:48;;;;;;;10.60;3.00;;;;;;;-0.70;100.00;99513.45;105744;1293;22737;-78
2023/11/26 05:28:55;;;;;;;8.40;1.90;;;;;;;-0.73;100.00;99523.66;105680;1293;22671;-79
2023/11/26 05:32:04;;;;;;;9.00;2.60;;;;;;;-0.76;100.00;99528.19;105686;1293;22646;-79
2023/11/26 05:34:53;;;;;;;8.10;1.80;;;;;;;-0.76;100.00;99528.11;105675;1270;25729;-79
2023/11/26 05:37:21;;;;;;;9.70;2.50;;;;;;;-0.76;100.00;99529.27;105683;1293;25495;-79
2023/11/26 05:39:49;;;;;;;11.40;2.10;;;;;;;-0.76;100.00;99528.89;105667;1293;22569;-80
2023/11/26 05:42:17;;;;;;;8.40;2.50;;;;;;;-0.77;100.00;99534.62;105697;1294;24127;-79
2023/11/26 05:45:07;;;;;;;8.20;2.10;;;;;;;-0.76;100.00;99535.62;105686;1293;23043;-79
2023/11/26 05:47:35;;;;;;;7.40;1.70;;;;;;;-0.76;100.00;99542.42;105692;1294;25227;-80
2023/11/26 05:50:43;;;;;;;6.30;1.80;;;;;;;-0.77;100.00;99546.77;105732;1294;24003;-79
2023/11/26 05:53:12;;;;;;;9.00;1.80;;;;;;;-0.79;100.00;99544.07;105688;1294;22588;-79
2023/11/26 05:56:23;;;;;;;5.20;1.50;;;;;;;-0.83;100.00;99543.80;105723;1289;22575;-79
2023/11/26 05:59:11;;;;;;;6.70;1.20;;;;;;;-0.88;100.00;99549.92;105659;1294;25543;-79
2023/11/26 06:02:00;;;;;;;6.00;1.50;;;;;;;-0.91;100.00;99553.44;105718;1293;24373;-80
2023/11/26 06:04:28;;;;;;;8.00;1.50;;;;;;;-0.95;100.00;99555.85;105675;1293;22561;-79
2023/11/26 06:07:24;;;;;;;4.80;1.30;;;;;;;-1.00;100.00;99565.73;105728;1292;22743;-78
2023/11/26 06:10:13;;;;;;;9.20;1.90;;;;;;;-1.06;100.00;99572.70;105591;1292;25428;-78
2023/11/26 06:12:41;;;;;;;5.80;1.40;;;;;;;-1.09;100.00;99571.67;105691;1292;25688;-78
2023/11/26 06:15:11;;;;;;;9.20;1.70;;;;;;;-1.11;100.00;99569.98;105711;1292;24249;-78
2023/11/26 06:17:39;;;;;;;11.30;2.60;;;;;;;-1.12;100.00;99578.38;105777;1292;25564;-79
2023/11/26 06:20:09;;;;;;;7.00;1.60;;;;;;;-1.14;100.00;99585.13;105762;1292;25350;-78
2023/11/26 06:22:39;;;;;;;7.40;1.80;;;;;;;-1.16;100.00;99591.66;105669;1289;22546;-79
2023/11/26 06:25:10;;;;;;;6.10;1.50;;;;;;;-1.17;100.00;99604.27;105647;1282;24270;-79
2023/11/26 06:27:58;;;;;;;6.60;1.80;;;;;;;-1.19;100.00;99605.09;105542;1292;22551;-79
2023/11/26 06:30:47;;;;;;;13.30;1.70;;;;;;;-1.21;100.00;99604.73;105532;1292;22669;-80
2023/11/26 06:33:39;;;;;;;7.60;1.80;;;;;;;-1.21;100.00;99608.95;105694;1293;22685;-79
2023/11/26 06:36:17;;;;;;;7.20;1.80;;;;;;;-1.22;100.00;99608.42;105691;1291;22549;-79
2023/11/26 06:38:46;;;;;;;7.50;1.70;;;;;;;-1.22;100.00;99608.90;105787;1289;26541;-79
2023/11/26 06:41:25;;;;;;;6.50;1.30;;;;;;;-1.23;100.00;99613.83;105519;1292;23962;-79
2023/11/26 06:43:54;;;;;;;6.50;1.50;;;;;;;-1.22;100.00;99616.16;105650;1293;24402;-79
2023/11/26 06:46:24;;;;;;;8.40;1.50;;;;;;;-1.21;100.00;99617.55;105670;1294;23604;-80
2023/11/26 06:48:52;;;;;;;10.30;2.20;;;;;;;-1.21;100.00;99621.70;105701;1294;22550;-79
2023/11/26 06:51:40;;;;;;;7.60;1.50;;;;;;;-1.22;100.00;99623.36;106586;1294;22497;-89
2023/11/26 06:54:09;;;;;;;6.60;1.40;;;;;;;-1.23;100.00;99624.33;106781;1286;22680;-87
2023/11/26 06:57:37;;;;;;;8.40;1.80;;;;;;;-1.23;100.00;99629.88;106732;1286;22836;-87
2023/11/26 07:01:07;;;;;;;8.20;1.60;;;;;;;-1.25;100.00;99639.61;106539;1286;23951;-86
2023/11/26 07:04:16;;;;;;;4.80;1.10;;;;;;;-1.27;100.00;99648.64;106571;1286;22712;-87
2023/11/26 07:07:47;;;;;;;8.20;1.60;;;;;;;-1.29;100.00;99650.00;106659;1286;24368;-87
2023/11/26 07:10:55;;;;;;;10.10;2.20;;;;;;;-1.30;100.00;99653.60;106402;1292;22829;-87
2023/11/26 07:13:45;;;;;;;8.50;1.60;;;;;;;-1.29;100.00;99654.22;106465;1289;22665;-88
2023/11/26 07:16:54;;;;;;;8.50;1.30;;;;;;;-1.28;100.00;99668.36;106370;1286;22537;-87
2023/11/26 07:20:02;;;;;;;6.30;1.50;;;;;;;-1.24;100.00;99676.07;106501;1286;22522;-87
2023/11/26 07:23:11;;;;;;;15.00;3.00;;;;;;;-1.21;100.00;99674.61;106130;1289;24373;-88
2023/11/26 07:26:21;;;;;;;7.80;1.50;;;;;;;-1.19;100.00;99681.07;106369;1286;22569;-88
2023/11/26 07:29:11;;;;;;;7.60;1.60;;;;;;;-1.18;99.29;99678.95;106425;1286;22557;-87
2023/11/26 07:32:40;;;;;;;8.80;1.50;;;;;;;-1.18;99.26;99683.09;106690;1286;23561;-88
2023/11/26 07:35:49;;;;;;;7.10;1.90;;;;;;;-1.17;99.36;99683.38;106193;1292;24419;-86
2023/11/26 07:38:40;;;;;;;8.30;2.10;;;;;;;-1.16;99.55;99692.91;106366;1285;22626;-87
2023/11/26 07:41:48;;;;;;;9.20;2.10;;;;;;;-1.17;99.57;99695.36;106413;1292;22589;-88
2023/11/26 07:44:36;;;;;;;8.20;1.80;;;;;;;-1.19;99.38;99696.16;107045;1285;22615;-87
2023/11/26 07:48:07;;;;;;;10.50;2.40;;;;;;;-1.21;99.55;99697.98;106909;1292;22564;-88
2023/11/26 07:50:56;;;;;;;8.20;1.90;;;;;;;-1.22;99.54;99703.80;106804;1292;22511;-88
2023/11/26 07:54:05;;;;;;;11.40;2.20;;;;;;;-1.21;99.76;99707.86;107184;1292;22552;-88
2023/11/26 07:56:53;;;;;;;12.60;2.90;;;;;;;-1.19;99.88;99703.20;107188;1292;23091;-88
2023/11/26 08:00:04;;;;;;;7.90;2.50;;;;;;;-1.14;99.96;99711.52;108719;1292;22553;-90
2023/11/26 08:02:36;;;;;;;12.90;2.20;;;;;;;-1.11;99.77;99710.06;107412;1289;27565;-88
2023/11/26 08:05:25;;;;;;;10.10;2.40;;;;;;;-1.09;99.34;99716.85;107560;1287;22605;-87
2023/11/26 08:08:55;;;;;;;8.20;1.70;;;;;;;-1.10;98.63;99728.69;106522;1292;26716;-87
2023/11/26 08:12:04;;;;;;;9.40;1.90;;;;;;;-1.13;98.25;99733.48;103577;1292;5096340;-86
2023/11/26 08:15:16;;;;;;;8.40;1.80;;;;;;;-1.15;97.99;99739.77;106776;1292;24724;-87
2023/11/26 08:18:21;;;;;;;10.00;2.40;;;;;;;-1.13;98.34;99740.69;106459;1292;22507;-88
2023/11/26 08:21:34;;;;;;;8.00;2.00;;;;;;;-1.10;98.59;99746.14;107712;1285;22572;-90
2023/11/26 08:24:26;;;;;;;5.60;1.30;;;;;;;-1.07;98.48;99745.06;106925;1292;25319;-78
2023/11/26 08:27:17;;;;;;;8.90;1.60;;;;;;;-1.04;98.31;99756.61;105598;1287;22680;-84
2023/11/26 08:30:12;;;;;;;8.50;1.70;;;;;;;-1.03;97.48;99763.23;105777;1292;24282;-82
2023/11/26 08:33:20;;;;;;;8.20;1.70;;;;;;;-1.02;97.03;99763.09;105901;1292;22615;-82
2023/11/26 08:36:25;;;;;;;8.00;1.70;;;;;;;-1.02;96.99;99764.41;105751;1292;25376;-82
2023/11/26 08:39:19;;;;;;;8.60;1.50;;;;;;;-1.00;97.32;99773.15;106109;1286;22615;-82
2023/11/26 08:42:23;;;;;;;6.70;1.80;;;;;;;-0.99;97.23;99772.66;105768;1291;22671;-82
2023/11/26 08:45:12;;;;;;;6.50;1.90;;;;;;;-0.97;97.50;99770.36;106047;1292;22561;-82
2023/11/26 08:48:01;;;;;;;9.10;2.30;;;;;;;-0.93;97.73;99774.61;105788;1292;24251;-82
2023/11/26 08:50:49;;;;;;;9.00;1.90;;;;;;;-0.92;97.70;99782.66;105954;1292;22659;-81
2023/11/26 08:53:38;;;;;;;6.70;1.70;;;;;;;-0.89;98.07;99785.52;105703;1292;24430;-83
2023/11/26 08:56:07;;;;;;;6.60;1.60;;;;;;;-0.87;98.05;99783.31;105882;1292;22533;-81
2023/11/26 08:59:15;;;;;;;8.30;1.60;;;;;;;-0.85;97.92;99785.70;105928;1292;25369;-82
2023/11/26 09:02:24;;;;;;;6.10;1.30;;;;;;;-0.84;97.08;99794.38;105779;1293;25708;-81
2023/11/26 09:04:53;;;;;;;4.90;1.60;;;;;;;-0.86;95.58;99791.66;105748;1294;22569;-82
2023/11/26 09:07:44;;;;;;;5.40;1.20;;;;;;;-0.89;94.47;99801.98;105908;1291;25430;-82
2023/11/26 09:10:13;;;;;;;7.70;1.50;;;;;;;-0.93;94.97;99795.20;105940;1291;22730;-81
2023/11/26 09:13:03;;;;;;;3.40;0.90;;;;;;;-0.97;93.81;99801.60;105943;1286;23959;-84
2023/11/26 09:15:51;;;;;;;2.60;0.70;;;;;;;-1.02;93.55;99803.08;105963;1292;22653;-82
2023/11/26 09:18:39;;;;;;;3.20;0.80;;;;;;;-1.05;94.59;99797.79;105950;1292;22622;-84
2023/11/26 09:21:50;;;;;;;4.20;0.90;;;;;;;-1.06;95.00;99798.52;106371;1292;22608;-83
2023/11/26 09:24:57;;;;;;;6.10;1.10;;;;;;;-1.06;95.57;99794.21;106380;1284;22589;-82
2023/11/26 09:27:46;;;;;;;5.00;1.20;;;;;;;-1.06;95.82;99792.34;106631;1286;22871;-82
2023/11/26 09:30:34;;;;;;;6.20;1.20;;;;;;;-1.06;95.73;99791.33;105753;1292;22614;-80
2023/11/26 09:33:03;;;;;;;5.80;1.30;;;;;;;-1.06;95.95;99791.00;105992;1292;23125;-80
2023/11/26 09:35:32;;;;;;;5.70;1.20;;;;;;;-1.06;96.08;99788.58;105922;1292;22562;-79
2023/11/26 09:38:01;;;;;;;4.90;1.20;;;;;;;-1.05;96.22;99788.48;107217;1286;25568;-78
2023/11/26 09:40:29;;;;;;;5.30;1.30;;;;;;;-1.05;96.11;99789.11;105869;1292;25398;-79
2023/11/26 09:42:57;;;;;;;8.10;1.70;;;;;;;-1.02;96.48;99793.22;105854;1292;24243;-80
2023/11/26 09:45:26;;;;;;;9.80;1.60;;;;;;;-1.01;96.00;99798.91;105771;1292;24274;-79
2023/11/26 09:47:54;;;;;;;4.30;1.10;;;;;;;-1.03;95.63;99798.08;105794;1292;22995;-80
2023/11/26 09:50:22;;;;;;;4.80;1.20;;;;;;;-1.05;94.88;99799.91;105809;1286;22614;-79
2023/11/26 09:52:52;;;;;;;6.80;1.40;;;;;;;-1.08;95.33;99800.19;105916;1292;22674;-80
2023/11/26 09:55:20;;;;;;;6.10;1.30;;;;;;;-1.09;95.11;99807.48;105877;1291;23846;-80
2023/11/26 09:57:49;;;;;;;5.80;1.20;;;;;;;-1.11;94.79;99799.84;105922;1292;22600;-79
2023/11/26 10:00:20;;;;;;;7.30;1.30;;;;;;;-1.12;95.24;99801.41;105877;1292;22561;-80
2023/11/26 10:03:00;;;;;;;8.30;1.60;;;;;;;-1.12;95.27;99801.80;105898;1289;24269;-80
2023/11/26 10:05:48;;;;;;;12.50;2.50;;;;;;;-1.12;95.52;99803.75;105990;1292;22552;-80
2023/11/26 10:08:36;;;;;;;7.40;1.20;;;;;;;-1.11;95.82;99802.48;105945;1292;23048;-80
2023/11/26 10:11:05;;;;;;;5.80;1.10;;;;;;;-1.09;95.48;99800.67;105775;1292;22625;-81
2023/11/26 10:13:38;;;;;;;6.20;1.00;;;;;;;-1.09;94.98;99799.26;105864;1292;22778;-80
2023/11/26 10:16:33;;;;;;;4.30;0.80;;;;;;;-1.08;95.07;99796.81;105821;1292;22715;-81
2023/11/26 10:19:02;;;;;;;2.90;0.90;;;;;;;-1.07;95.13;99798.30;105848;1292;22667;-79
2023/11/26 10:21:32;;;;;;;8.10;1.60;;;;;;;-1.05;95.13;99795.30;105801;1292;22630;-80
2023/11/26 10:24:02;;;;;;;6.50;1.70;;;;;;;-1.02;95.47;99795.41;105797;1292;25517;-80
2023/11/26 10:26:33;;;;;;;6.70;1.50;;;;;;;-0.99;95.96;99789.64;106046;1292;22547;-80
2023/11/26 10:29:23;;;;;;;4.70;1.00;;;;;;;-0.94;95.98;99789.35;105868;1292;21798;-80
2023/11/26 10:32:05;;;;;;;6.30;1.10;;;;;;;-0.90;95.69;99790.71;105904;1292;25094;-81
2023/11/26 10:34:34;;;;;;;;;;;;;;;-0.87;95.30;99784.00;106180;1292;22521;-79
2023/11/26 10:37:02;;;;;;;4.30;1.00;;;;;;;-0.83;95.06;99784.98;106190;1292;22542;-80
2023/11/26 10:39:53;;;;;;;4.40;1.00;;;;;;;-0.79;95.07;99783.11;106186;1292;22670;-80
2023/11/26 10:42:22;;;;;;;4.20;0.90;;;;;;;-0.75;95.35;99784.92;106221;1292;22629;-80
2023/11/26 10:45:32;;;;;;;7.90;1.70;;;;;;;-0.70;95.44;99778.36;106225;1291;22688;-80
2023/11/26 10:48:23;;;;;;;6.60;1.00;;;;;;;-0.66;94.90;99774.95;105967;1292;22561;-81
2023/11/26 10:50:59;;;;;;;7.50;2.10;;;;;;;-0.64;92.80;99779.21;105791;1288;24859;-82
2023/11/26 10:53:35;;;;;;;9.90;1.90;;;;;;;-0.61;94.19;99771.64;106159;1292;22561;-82
2023/11/26 10:56:32;;;;;;;6.10;1.20;;;;;;;-0.55;94.26;99771.48;106314;1292;22827;-82
2023/11/26 10:59:19;;;;;;;5.40;1.00;;;;;;;-0.49;93.81;99778.83;107200;1271;22650;-82
2023/11/26 11:02:10;;;;;;;4.70;1.00;;;;;;;-0.42;93.42;99779.26;109143;1286;22193;-82
2023/11/26 11:04:42;;;;;;;4.70;0.60;;;;;;;-0.37;92.93;99772.59;109227;1285;22381;-81
2023/11/26 11:07:10;;;;;;;3.10;0.60;;;;;;;-0.30;92.09;99774.51;109048;1286;23567;-82
2023/11/26 11:09:54;;;;;;;5.10;0.80;;;;;;;-0.23;92.73;99773.77;108989;1292;22222;-81
2023/11/26 11:13:03;;;;;;;3.70;0.90;;;;;;;-0.16;92.63;99772.79;109230;1292;23143;-79
2023/11/26 11:15:32;;;;;;;7.10;1.10;;;;;;;-0.09;92.61;99778.23;108757;1291;23986;-83
2023/11/26 11:18:41;;;;;;;7.00;1.10;;;;;;;-0.06;91.91;99782.00;108959;1289;22382;-84
2023/11/26 11:21:10;;;;;;;4.10;1.00;;;;;;;-0.05;91.63;99780.67;108884;1286;22456;-82
2023/11/26 11:23:40;;;;;;;5.90;1.20;;;;;;;-0.04;91.23;99783.55;108922;1286;22503;-80
2023/11/26 11:26:09;;;;;;;2.80;0.60;;;;;;;-0.04;91.06;99782.84;108956;1287;22370;-80
2023/11/26 11:28:40;;;;;;;4.90;0.70;;;;;;;-0.02;90.57;99787.68;108927;1286;22223;-81
2023/11/26 11:31:10;;;;;;;3.80;0.80;;;;;;;-0.01;89.84;99786.40;108949;1286;22404;-83
2023/11/26 11:34:20;;;;;;;6.00;1.20;;;;;;;-0.00;90.67;99790.09;108889;1286;22277;-81
2023/11/26 11:36:53;;;;;;;4.10;0.80;;;;;;;-0.02;90.07;99796.83;109056;1292;22363;-83
2023/11/26 11:39:25;;;;;;;5.40;0.80;;;;;;;-0.03;89.97;99799.13;108937;1287;23044;-80
2023/11/26 11:42:13;;;;;;;6.10;1.00;;;;;;;-0.06;89.88;99802.48;109038;1286;23063;-80
2023/11/26 11:44:43;;;;;;;7.50;1.00;;;;;;;-0.08;90.71;99805.42;109162;1287;23000;-81
2023/11/26 11:47:12;;;;;;;3.00;0.80;;;;;;;-0.11;91.29;99807.04;109060;1286;22415;-80
2023/11/26 11:50:06;;;;;;;2.40;0.80;;;;;;;-0.12;91.89;99817.39;109121;1288;22204;-80
2023/11/26 11:52:35;;;;;;;4.30;0.80;;;;;;;-0.20;92.32;99820.27;109128;1285;22425;-80
2023/11/26 11:55:34;;;;;;;3.40;0.70;;;;;;;-0.28;92.62;99822.13;109109;1292;22230;-81
2023/11/26 11:58:12;;;;;;;4.60;1.00;;;;;;;-0.32;92.94;99821.11;108368;1286;22540;-77
2023/11/26 12:00:43;;;;;;;7.40;0.90;;;;;;;-0.35;93.03;99818.79;106475;1292;22589;-77
2023/11/26 12:03:17;;;;;;;4.40;0.80;;;;;;;-0.36;93.36;99818.41;106441;1292;24145;-80
2023/11/26 12:05:45;;;;;;;12.20;1.80;;;;;;;-0.35;93.50;99816.60;106289;1292;25334;-79
2023/11/26 12:08:33;;;;;;;6.90;1.50;;;;;;;-0.35;93.59;99815.48;106568;1292;25249;-80
2023/11/26 12:11:08;;;;;;;7.20;1.10;;;;;;;-0.34;93.40;99814.16;106555;1286;23395;-78
2023/11/26 12:13:42;;;;;;;17.80;4.60;;;;;;;-0.36;93.40;99808.54;106444;1289;22625;-81
2023/11/26 12:16:11;;;;;;;13.30;3.30;;;;;;;-0.36;93.43;99811.84;106474;1286;22599;-80
2023/11/26 12:18:40;;;;;;;11.10;1.80;;;;;;;-0.36;93.38;99807.68;106469;1292;23708;-80
2023/11/26 12:21:29;;;;;;;12.00;3.60;;;;;;;-0.35;93.44;99807.44;106528;1286;22577;-81
2023/11/26 12:24:20;;;;;;;20.80;6.10;;;;;;;-0.33;93.38;99806.21;107405;1289;25469;-84
2023/11/26 12:27:22;;;;;;;15.80;4.50;;;;;;;-0.31;93.33;99811.67;107424;1292;22632;-80
2023/11/26 12:29:50;;;;;;;9.00;1.80;;;;;;;-0.27;93.28;99811.45;107380;1286;23938;-82